Private Wetterstation Sandau
Wetterdaten: Mittwoch, 28.11.2012
Datum Zeit Temp. A. Feuchte A. Luftdruck Regen Wind Richtung Richtung Taupunkt Windchill
28.11.2012 00:01 5,3 C 93 % 1006,9 hPa 0,0 l/m 2,5 km/h (1 Bft) S-SO 157 4,3 C 5,3 C
28.11.2012 00:06 5,3 C 93 % 1006,6 hPa 0,0 l/m 0,0 km/h (0 Bft) S-SO 157 4,3 C 5,3 C
28.11.2012 00:11 5,3 C 93 % 1006,7 hPa 0,0 l/m 1,8 km/h (1 Bft) S-SO 157 4,3 C 5,3 C
28.11.2012 00:16 5,3 C 93 % 1007,0 hPa 0,0 l/m 0,0 km/h (0 Bft) S-SO 157 4,3 C 5,3 C
28.11.2012 00:21 5,3 C 93 % 1007,1 hPa 0,0 l/m 1,4 km/h (1 Bft) S-SO 157 4,3 C 5,3 C
28.11.2012 00:26 5,3 C 93 % 1007,1 hPa 0,0 l/m 0,0 km/h (0 Bft) S-SO 157 4,3 C 5,3 C
28.11.2012 00:31 5,3 C 93 % 1007,2 hPa 0,0 l/m 1,1 km/h (1 Bft) S-SO 157 4,3 C 5,3 C
28.11.2012 00:36 5,3 C 93 % 1007,4 hPa 0,0 l/m 0,0 km/h (0 Bft) S-SO 157 4,3 C 5,3 C
28.11.2012 00:41 5,3 C 93 % 1007,2 hPa 0,0 l/m 0,0 km/h (0 Bft) S-SO 157 4,3 C 5,3 C
28.11.2012 00:46 5,3 C 93 % 1007,1 hPa 0,0 l/m 0,0 km/h (0 Bft) S-SO 157 4,3 C 5,3 C
28.11.2012 00:51 5,3 C 93 % 1007,1 hPa 0,0 l/m 0,0 km/h (0 Bft) S-SO 157 4,3 C 5,3 C
28.11.2012 00:56 5,3 C 93 % 1007,0 hPa 0,0 l/m 0,0 km/h (0 Bft) S-SO 157 4,3 C 5,3 C
28.11.2012 01:01 5,3 C 93 % 1006,9 hPa 0,0 l/m 0,0 km/h (0 Bft) S-SO 157 4,3 C 5,3 C
28.11.2012 01:06 5,3 C 93 % 1006,8 hPa 0,0 l/m 0,0 km/h (0 Bft) S-SO 157 4,3 C 5,3 C
28.11.2012 01:11 5,3 C 93 % 1006,8 hPa 0,0 l/m 2,5 km/h (1 Bft) S-SO 157 4,3 C 5,3 C
28.11.2012 01:16 5,3 C 93 % 1007,0 hPa 0,0 l/m 0,0 km/h (0 Bft) S-SO 157 4,3 C 5,3 C
28.11.2012 01:21 5,3 C 93 % 1006,8 hPa 0,0 l/m 0,0 km/h (0 Bft) S-SO 157 4,3 C 5,3 C
28.11.2012 01:26 5,2 C 93 % 1006,6 hPa 0,0 l/m 0,0 km/h (0 Bft) S-SO 157 4,2 C 5,2 C
28.11.2012 01:31 5,2 C 93 % 1006,7 hPa 0,0 l/m 0,0 km/h (0 Bft) S-SO 157 4,2 C 5,2 C
28.11.2012 01:36 5,2 C 93 % 1006,8 hPa 0,0 l/m 0,0 km/h (0 Bft) S-SO 157 4,2 C 5,2 C
28.11.2012 01:41 5,1 C 93 % 1006,9 hPa 0,0 l/m 2,9 km/h (1 Bft) S-SO 157 4,1 C 5,1 C
28.11.2012 01:46 5,1 C 93 % 1006,8 hPa 0,0 l/m 0,0 km/h (0 Bft) S-SO 157 4,1 C 5,1 C
28.11.2012 01:51 5,1 C 93 % 1006,9 hPa 0,0 l/m 0,0 km/h (0 Bft) S-SO 157 4,1 C 5,1 C
28.11.2012 01:56 5,1 C 93 % 1006,8 hPa 0,0 l/m 0,0 km/h (0 Bft) S-SO 157 4,1 C 5,1 C
28.11.2012 02:01 5,1 C 93 % 1006,9 hPa 0,0 l/m 0,0 km/h (0 Bft) S-SO 157 4,1 C 5,1 C
28.11.2012 02:06 5,1 C 93 % 1006,9 hPa 0,0 l/m 2,5 km/h (1 Bft) S-SO 157 4,1 C 5,1 C
28.11.2012 02:11 5,0 C 93 % 1007,1 hPa 0,0 l/m 0,0 km/h (0 Bft) S-SO 157 4,0 C 5,0 C
28.11.2012 02:16 5,0 C 93 % 1006,7 hPa 0,0 l/m 0,0 km/h (0 Bft) S-SO 157 4,0 C 5,0 C
28.11.2012 02:21 5,0 C 93 % 1006,8 hPa 0,0 l/m 0,0 km/h (0 Bft) S-SO 157 4,0 C 5,0 C
28.11.2012 02:26 4,9 C 93 % 1006,8 hPa 0,0 l/m 0,0 km/h (0 Bft) S-SO 157 3,9 C 4,9 C
28.11.2012 02:31 4,9 C 93 % 1006,8 hPa 0,0 l/m 0,0 km/h (0 Bft) S-SO 157 3,9 C 4,9 C
28.11.2012 02:36 4,9 C 93 % 1006,7 hPa 0,0 l/m 0,0 km/h (0 Bft) S-SO 157 3,9 C 4,9 C
28.11.2012 02:41 4,9 C 93 % 1006,7 hPa 0,0 l/m 0,0 km/h (0 Bft) S-SO 157 3,9 C 4,9 C
28.11.2012 02:46 4,9 C 93 % 1006,6 hPa 0,0 l/m 0,0 km/h (0 Bft) S-SO 157 3,9 C 4,9 C
28.11.2012 02:51 4,9 C 93 % 1006,7 hPa 0,0 l/m 1,8 km/h (1 Bft) S-SO 157 3,9 C 4,9 C
28.11.2012 02:56 4,9 C 93 % 1006,9 hPa 0,0 l/m 0,0 km/h (0 Bft) S-SO 157 3,9 C 4,9 C
28.11.2012 03:01 4,9 C 93 % 1006,7 hPa 0,0 l/m 0,0 km/h (0 Bft) S-SO 157 3,9 C 4,9 C
28.11.2012 03:06 4,9 C 93 % 1006,5 hPa 0,0 l/m 2,2 km/h (1 Bft) S-SO 157 3,9 C 4,9 C
28.11.2012 03:11 4,9 C 93 % 1006,6 hPa 0,0 l/m 2,2 km/h (1 Bft) S-SO 157 3,9 C 4,9 C
28.11.2012 03:16 4,9 C 93 % 1006,5 hPa 0,0 l/m 0,0 km/h (0 Bft) S-SO 157 3,9 C 4,9 C
28.11.2012 03:21 4,9 C 93 % 1006,5 hPa 0,0 l/m 0,0 km/h (0 Bft) S-SO 157 3,9 C 4,9 C
28.11.2012 03:26 4,9 C 93 % 1006,3 hPa 0,0 l/m 0,0 km/h (0 Bft) S-SO 157 3,9 C 4,9 C
28.11.2012 03:31 4,9 C 93 % 1006,3 hPa 0,0 l/m 0,0 km/h (0 Bft) S-SO 157 3,9 C 4,9 C
28.11.2012 03:36 4,9 C 93 % 1006,3 hPa 0,0 l/m 0,0 km/h (0 Bft) S-SO 157 3,9 C 4,9 C
28.11.2012 03:41 4,9 C 93 % 1006,2 hPa 0,0 l/m 0,0 km/h (0 Bft) S-SO 157 3,9 C 4,9 C
28.11.2012 03:46 4,9 C 93 % 1006,3 hPa 0,0 l/m 0,0 km/h (0 Bft) S-SO 157 3,9 C 4,9 C
28.11.2012 03:51 4,9 C 93 % 1006,3 hPa 0,0 l/m 0,0 km/h (0 Bft) S-SO 157 3,9 C 4,9 C
28.11.2012 03:56 4,9 C 93 % 1006,3 hPa 0,0 l/m 0,0 km/h (0 Bft) S-SO 157 3,9 C 4,9 C
28.11.2012 04:01 4,9 C 93 % 1006,3 hPa 0,0 l/m 0,0 km/h (0 Bft) S-SO 157 3,9 C 4,9 C
28.11.2012 04:06 5,0 C 93 % 1006,3 hPa 0,0 l/m 0,0 km/h (0 Bft) S-SO 157 4,0 C 5,0 C
28.11.2012 04:11 5,0 C 93 % 1006,2 hPa 0,0 l/m 0,0 km/h (0 Bft) S-SO 157 4,0 C 5,0 C
28.11.2012 04:16 5,0 C 93 % 1006,2 hPa 0,0 l/m 2,2 km/h (1 Bft) S-SO 157 4,0 C 5,0 C
28.11.2012 04:21 4,9 C 93 % 1006,1 hPa 0,0 l/m 0,0 km/h (0 Bft) S-SO 157 3,9 C 4,9 C
28.11.2012 04:26 5,0 C 93 % 1006,3 hPa 0,0 l/m 0,0 km/h (0 Bft) S-SO 157 4,0 C 5,0 C
28.11.2012 04:31 5,0 C 93 % 1006,3 hPa 0,0 l/m 0,0 km/h (0 Bft) S-SO 157 4,0 C 5,0 C
28.11.2012 04:36 5,0 C 93 % 1006,2 hPa 0,0 l/m 0,0 km/h (0 Bft) S-SO 157 4,0 C 5,0 C
28.11.2012 04:41 5,0 C 93 % 1006,1 hPa 0,0 l/m 0,0 km/h (0 Bft) S-SO 157 4,0 C 5,0 C
28.11.2012 04:46 5,1 C 93 % 1006,1 hPa 0,0 l/m 0,0 km/h (0 Bft) S-SO 157 4,1 C 5,1 C
28.11.2012 04:51 5,0 C 93 % 1006,0 hPa 0,0 l/m 0,0 km/h (0 Bft) S-SO 157 4,0 C 5,0 C
28.11.2012 04:56 5,0 C 93 % 1006,2 hPa 0,0 l/m 0,0 km/h (0 Bft) S-SO 157 4,0 C 5,0 C
28.11.2012 05:01 5,0 C 93 % 1006,1 hPa 0,0 l/m 0,0 km/h (0 Bft) S-SO 157 4,0 C 5,0 C
28.11.2012 05:06 5,0 C 93 % 1006,0 hPa 0,0 l/m 0,0 km/h (0 Bft) S-SO 157 4,0 C 5,0 C
28.11.2012 05:11 5,0 C 93 % 1005,9 hPa 0,0 l/m 0,0 km/h (0 Bft) S-SO 157 4,0 C 5,0 C
28.11.2012 05:16 4,9 C 93 % 1005,8 hPa 0,0 l/m 0,0 km/h (0 Bft) S-SO 157 3,9 C 4,9 C
28.11.2012 05:21 4,9 C 93 % 1006,1 hPa 0,0 l/m 0,0 km/h (0 Bft) S-SO 157 3,9 C 4,9 C
28.11.2012 05:26 5,0 C 93 % 1006,0 hPa 0,0 l/m 0,0 km/h (0 Bft) S-SO 157 4,0 C 5,0 C
28.11.2012 05:31 5,0 C 93 % 1006,1 hPa 0,0 l/m 2,5 km/h (1 Bft) S-SO 157 4,0 C 5,0 C
28.11.2012 05:36 5,0 C 93 % 1006,2 hPa 0,0 l/m 0,0 km/h (0 Bft) S-SO 157 4,0 C 5,0 C
28.11.2012 05:41 5,0 C 93 % 1006,2 hPa 0,0 l/m 4,0 km/h (1 Bft) S-SO 157 4,0 C 5,0 C
28.11.2012 05:46 5,0 C 93 % 1006,0 hPa 0,0 l/m 2,2 km/h (1 Bft) SO 135 4,0 C 5,0 C
28.11.2012 05:51 5,0 C 93 % 1006,1 hPa 0,0 l/m 2,5 km/h (1 Bft) SO 135 4,0 C 5,0 C
28.11.2012 05:56 5,0 C 93 % 1006,1 hPa 0,0 l/m 0,0 km/h (0 Bft) SO 135 4,0 C 5,0 C
28.11.2012 06:01 4,9 C 93 % 1006,1 hPa 0,0 l/m 2,5 km/h (1 Bft) SO 135 3,9 C 4,9 C
28.11.2012 06:06 4,9 C 93 % 1006,1 hPa 0,0 l/m 1,8 km/h (1 Bft) SO 135 3,9 C 4,9 C
28.11.2012 06:11 4,9 C 93 % 1006,1 hPa 0,0 l/m 0,0 km/h (0 Bft) SO 135 3,9 C 4,9 C
28.11.2012 06:16 4,9 C 93 % 1006,1 hPa 0,0 l/m 0,0 km/h (0 Bft) SO 135 3,9 C 4,9 C
28.11.2012 06:21 5,0 C 93 % 1006,1 hPa 0,0 l/m 1,8 km/h (1 Bft) SO 135 4,0 C 5,0 C
28.11.2012 06:26 5,0 C 93 % 1006,1 hPa 0,0 l/m 3,2 km/h (1 Bft) SO 135 4,0 C 5,0 C
28.11.2012 06:31 5,0 C 93 % 1006,3 hPa 0,0 l/m 0,0 km/h (0 Bft) SO 135 4,0 C 5,0 C
28.11.2012 06:36 5,0 C 93 % 1006,1 hPa 0,0 l/m 0,0 km/h (0 Bft) O-SO 112 4,0 C 5,0 C
28.11.2012 06:41 5,0 C 93 % 1005,8 hPa 0,0 l/m 5,0 km/h (1 Bft) O-SO 112 4,0 C 4,1 C
28.11.2012 06:46 4,9 C 93 % 1005,8 hPa 0,0 l/m 0,0 km/h (0 Bft) O-SO 112 3,9 C 4,9 C
28.11.2012 06:51 5,0 C 93 % 1006,0 hPa 0,0 l/m 0,0 km/h (0 Bft) O-SO 112 4,0 C 5,0 C
28.11.2012 06:56 4,9 C 93 % 1006,0 hPa 0,0 l/m 0,0 km/h (0 Bft) O-SO 112 3,9 C 4,9 C
28.11.2012 07:01 4,9 C 93 % 1005,8 hPa 0,0 l/m 1,1 km/h (1 Bft) O-SO 112 3,9 C 4,9 C
28.11.2012 07:06 5,0 C 93 % 1005,7 hPa 0,0 l/m 1,8 km/h (1 Bft) O-SO 112 4,0 C 5,0 C
28.11.2012 07:11 5,0 C 93 % 1005,9 hPa 0,0 l/m 1,4 km/h (1 Bft) O-SO 112 4,0 C 5,0 C
28.11.2012 07:16 5,0 C 93 % 1005,8 hPa 0,5 l/m 0,0 km/h (0 Bft) O-SO 112 4,0 C 5,0 C
28.11.2012 07:21 5,0 C 93 % 1005,9 hPa 0,0 l/m 0,0 km/h (0 Bft) O-SO 112 4,0 C 5,0 C
28.11.2012 07:26 5,0 C 93 % 1005,9 hPa 0,0 l/m 1,8 km/h (1 Bft) O-SO 112 4,0 C 5,0 C
28.11.2012 07:31 5,0 C 93 % 1006,0 hPa 0,0 l/m 0,0 km/h (0 Bft) O-SO 112 4,0 C 5,0 C
28.11.2012 07:36 4,9 C 93 % 1006,0 hPa 0,0 l/m 0,0 km/h (0 Bft) O-SO 112 3,9 C 4,9 C
28.11.2012 07:41 4,9 C 93 % 1006,0 hPa 0,0 l/m 0,0 km/h (0 Bft) O-SO 112 3,9 C 4,9 C
28.11.2012 07:46 4,9 C 93 % 1005,9 hPa 0,0 l/m 0,0 km/h (0 Bft) O-SO 112 3,9 C 4,9 C
28.11.2012 07:51 4,9 C 93 % 1005,8 hPa 0,0 l/m 0,0 km/h (0 Bft) O-SO 112 3,9 C 4,9 C
28.11.2012 07:56 4,9 C 93 % 1006,0 hPa 0,0 l/m 0,0 km/h (0 Bft) O-SO 112 3,9 C 4,9 C
28.11.2012 08:01 4,9 C 93 % 1005,9 hPa 0,0 l/m 3,6 km/h (1 Bft) NO 45 3,9 C 4,9 C
28.11.2012 08:06 4,9 C 93 % 1005,9 hPa 0,0 l/m 0,0 km/h (0 Bft) NO 45 3,9 C 4,9 C
28.11.2012 08:11 4,9 C 93 % 1006,0 hPa 0,0 l/m 0,0 km/h (0 Bft) NO 45 3,9 C 4,9 C
28.11.2012 08:16 4,9 C 93 % 1005,8 hPa 0,0 l/m 0,0 km/h (0 Bft) NO 45 3,9 C 4,9 C
28.11.2012 08:21 4,9 C 93 % 1005,9 hPa 0,0 l/m 0,0 km/h (0 Bft) NO 45 3,9 C 4,9 C
28.11.2012 08:26 4,9 C 93 % 1005,9 hPa 0,0 l/m 0,0 km/h (0 Bft) NO 45 3,9 C 4,9 C
28.11.2012 08:31 4,9 C 93 % 1005,9 hPa 0,0 l/m 0,0 km/h (0 Bft) NO 45 3,9 C 4,9 C
28.11.2012 08:36 5,0 C 93 % 1006,2 hPa 0,0 l/m 0,0 km/h (0 Bft) NO 45 4,0 C 5,0 C
28.11.2012 08:41 5,1 C 93 % 1006,1 hPa 0,0 l/m 0,0 km/h (0 Bft) NO 45 4,1 C 5,1 C
28.11.2012 08:46 5,1 C 93 % 1006,2 hPa 0,0 l/m 0,0 km/h (0 Bft) NO 45 4,1 C 5,1 C
28.11.2012 08:51 5,1 C 94 % 1006,2 hPa 0,0 l/m 0,0 km/h (0 Bft) NO 45 4,2 C 5,1 C
28.11.2012 08:56 5,2 C 94 % 1006,0 hPa 0,0 l/m 0,0 km/h (0 Bft) NO 45 4,3 C 5,2 C
28.11.2012 09:01 5,3 C 94 % 1006,1 hPa 0,0 l/m 0,0 km/h (0 Bft) NO 45 4,4 C 5,3 C
28.11.2012 09:06 5,3 C 94 % 1006,0 hPa 0,0 l/m 0,0 km/h (0 Bft) NO 45 4,4 C 5,3 C
28.11.2012 09:11 5,3 C 94 % 1006,0 hPa 0,0 l/m 0,0 km/h (0 Bft) NO 45 4,4 C 5,3 C
28.11.2012 09:16 5,4 C 94 % 1006,0 hPa 0,0 l/m 0,0 km/h (0 Bft) NO 45 4,5 C 5,4 C
28.11.2012 09:21 5,4 C 94 % 1006,0 hPa 0,0 l/m 0,0 km/h (0 Bft) NO 45 4,5 C 5,4 C
28.11.2012 09:26 5,5 C 94 % 1006,0 hPa 0,0 l/m 0,0 km/h (0 Bft) NO 45 4,6 C 5,5 C
28.11.2012 09:31 5,6 C 94 % 1006,1 hPa 0,0 l/m 0,0 km/h (0 Bft) NO 45 4,7 C 5,6 C
28.11.2012 09:36 5,6 C 94 % 1006,1 hPa 0,0 l/m 0,0 km/h (0 Bft) NO 45 4,7 C 5,6 C
28.11.2012 09:41 5,6 C 94 % 1006,3 hPa 0,0 l/m 0,0 km/h (0 Bft) NO 45 4,7 C 5,6 C
28.11.2012 09:46 5,7 C 94 % 1006,3 hPa 0,0 l/m 0,0 km/h (0 Bft) NO 45 4,8 C 5,7 C
28.11.2012 09:51 5,7 C 94 % 1006,0 hPa 0,0 l/m 0,0 km/h (0 Bft) NO 45 4,8 C 5,7 C
28.11.2012 09:56 5,8 C 94 % 1006,0 hPa 0,0 l/m 0,0 km/h (0 Bft) NO 45 4,9 C 5,8 C
28.11.2012 10:01 5,9 C 94 % 1006,2 hPa 0,0 l/m 0,0 km/h (0 Bft) NO 45 5,0 C 5,9 C
28.11.2012 10:06 6,0 C 94 % 1006,4 hPa 0,0 l/m 0,0 km/h (0 Bft) NO 45 5,1 C 6,0 C
28.11.2012 10:11 6,1 C 94 % 1006,3 hPa 0,0 l/m 0,0 km/h (0 Bft) NO 45 5,2 C 6,1 C
28.11.2012 10:16 6,1 C 94 % 1006,3 hPa 0,0 l/m 0,0 km/h (0 Bft) NO 45 5,2 C 6,1 C
28.11.2012 10:21 6,1 C 93 % 1006,4 hPa 0,0 l/m 1,4 km/h (1 Bft) NO 45 5,1 C 6,1 C
28.11.2012 10:26 6,1 C 94 % 1006,4 hPa 0,0 l/m 0,0 km/h (0 Bft) NO 45 5,2 C 6,1 C
28.11.2012 10:31 6,2 C 93 % 1006,2 hPa 0,0 l/m 2,9 km/h (1 Bft) NO 45 5,2 C 6,2 C
28.11.2012 10:36 6,1 C 93 % 1006,2 hPa 0,0 l/m 1,4 km/h (1 Bft) NO 45 5,1 C 6,1 C
28.11.2012 10:41 6,1 C 93 % 1006,2 hPa 0,0 l/m 0,0 km/h (0 Bft) NO 45 5,1 C 6,1 C
28.11.2012 10:46 6,2 C 93 % 1006,0 hPa 0,0 l/m 1,8 km/h (1 Bft) NO 45 5,2 C 6,2 C
28.11.2012 10:51 6,1 C 93 % 1006,1 hPa 0,0 l/m 1,1 km/h (1 Bft) NO 45 5,1 C 6,1 C
28.11.2012 10:56 6,1 C 93 % 1005,9 hPa 0,0 l/m 1,8 km/h (1 Bft) NO 45 5,1 C 6,1 C
28.11.2012 11:01 6,1 C 93 % 1006,0 hPa 0,0 l/m 2,2 km/h (1 Bft) NO 45 5,1 C 6,1 C
28.11.2012 11:06 6,1 C 93 % 1006,0 hPa 0,0 l/m 0,0 km/h (0 Bft) NO 45 5,1 C 6,1 C
28.11.2012 11:11 6,1 C 93 % 1006,2 hPa 0,0 l/m 1,8 km/h (1 Bft) NO 45 5,1 C 6,1 C
28.11.2012 11:16 6,2 C 93 % 1006,2 hPa 0,0 l/m 2,5 km/h (1 Bft) NO 45 5,2 C 6,2 C
28.11.2012 11:21 6,3 C 93 % 1006,1 hPa 0,0 l/m 0,0 km/h (0 Bft) NO 45 5,3 C 6,3 C
28.11.2012 11:26 6,3 C 93 % 1005,9 hPa 0,0 l/m 0,0 km/h (0 Bft) NO 45 5,3 C 6,3 C
28.11.2012 11:31 6,3 C 93 % 1005,9 hPa 0,0 l/m 0,0 km/h (0 Bft) NO 45 5,3 C 6,3 C
28.11.2012 11:36 6,3 C 93 % 1005,9 hPa 0,0 l/m 0,0 km/h (0 Bft) NO 45 5,3 C 6,3 C
28.11.2012 11:41 6,3 C 93 % 1006,0 hPa 0,0 l/m 0,0 km/h (0 Bft) NO 45 5,3 C 6,3 C
28.11.2012 11:46 6,3 C 93 % 1005,9 hPa 0,0 l/m 0,0 km/h (0 Bft) NO 45 5,3 C 6,3 C
28.11.2012 11:51 6,4 C 94 % 1005,9 hPa 0,0 l/m 0,0 km/h (0 Bft) NO 45 5,5 C 6,4 C
28.11.2012 11:56 6,4 C 94 % 1005,8 hPa 0,0 l/m 0,0 km/h (0 Bft) NO 45 5,5 C 6,4 C
28.11.2012 12:01 6,5 C 94 % 1005,8 hPa 0,0 l/m 0,0 km/h (0 Bft) NO 45 5,6 C 6,5 C
28.11.2012 12:06 6,5 C 94 % 1005,8 hPa 0,0 l/m 0,0 km/h (0 Bft) NO 45 5,6 C 6,5 C
28.11.2012 12:11 6,5 C 94 % 1005,8 hPa 0,0 l/m 0,0 km/h (0 Bft) NO 45 5,6 C 6,5 C
28.11.2012 12:16 6,6 C 94 % 1006,0 hPa 0,0 l/m 0,0 km/h (0 Bft) NO 45 5,7 C 6,6 C
28.11.2012 12:21 6,6 C 94 % 1005,9 hPa 0,0 l/m 0,0 km/h (0 Bft) NO 45 5,7 C 6,6 C
28.11.2012 12:26 6,6 C 94 % 1005,9 hPa 0,0 l/m 0,0 km/h (0 Bft) NO 45 5,7 C 6,6 C
28.11.2012 12:31 6,6 C 94 % 1005,9 hPa 0,0 l/m 0,0 km/h (0 Bft) NO 45 5,7 C 6,6 C
28.11.2012 12:36 6,7 C 94 % 1005,9 hPa 0,0 l/m 0,0 km/h (0 Bft) NO 45 5,8 C 6,7 C
28.11.2012 12:41 6,7 C 94 % 1006,0 hPa 0,0 l/m 0,0 km/h (0 Bft) NO 45 5,8 C 6,7 C
28.11.2012 12:46 6,8 C 94 % 1005,9 hPa 0,0 l/m 0,0 km/h (0 Bft) NO 45 5,9 C 6,8 C
28.11.2012 12:51 6,8 C 94 % 1006,0 hPa 0,0 l/m 0,0 km/h (0 Bft) NO 45 5,9 C 6,8 C
28.11.2012 12:56 6,9 C 94 % 1005,8 hPa 0,0 l/m 0,0 km/h (0 Bft) NO 45 6,0 C 6,9 C
28.11.2012 13:01 6,9 C 94 % 1005,8 hPa 0,0 l/m 0,0 km/h (0 Bft) NO 45 6,0 C 6,9 C
28.11.2012 13:06 6,9 C 94 % 1005,6 hPa 0,0 l/m 0,0 km/h (0 Bft) NO 45 6,0 C 6,9 C
28.11.2012 13:11 6,9 C 94 % 1005,4 hPa 0,0 l/m 0,0 km/h (0 Bft) NO 45 6,0 C 6,9 C
28.11.2012 13:16 6,9 C 94 % 1005,5 hPa 0,0 l/m 0,0 km/h (0 Bft) NO 45 6,0 C 6,9 C
28.11.2012 13:21 6,8 C 94 % 1005,3 hPa 0,0 l/m 2,9 km/h (1 Bft) NO 45 5,9 C 6,8 C
28.11.2012 13:26 6,7 C 94 % 1005,2 hPa 0,0 l/m 0,0 km/h (0 Bft) NO 45 5,8 C 6,7 C
28.11.2012 13:31 6,7 C 94 % 1005,2 hPa 0,0 l/m 0,0 km/h (0 Bft) NO 45 5,8 C 6,7 C
28.11.2012 13:36 6,8 C 94 % 1005,2 hPa 0,0 l/m 0,0 km/h (0 Bft) NO 45 5,9 C 6,8 C
28.11.2012 13:41 6,8 C 94 % 1005,1 hPa 0,0 l/m 0,0 km/h (0 Bft) NO 45 5,9 C 6,8 C
28.11.2012 13:46 6,8 C 94 % 1005,0 hPa 0,0 l/m 0,0 km/h (0 Bft) NO 45 5,9 C 6,8 C
28.11.2012 13:51 6,8 C 94 % 1005,1 hPa 0,0 l/m 0,0 km/h (0 Bft) NO 45 5,9 C 6,8 C
28.11.2012 13:56 6,9 C 94 % 1005,1 hPa 0,0 l/m 0,0 km/h (0 Bft) NO 45 6,0 C 6,9 C
28.11.2012 14:01 6,9 C 94 % 1004,9 hPa 0,0 l/m 0,0 km/h (0 Bft) NO 45 6,0 C 6,9 C
28.11.2012 14:06 6,9 C 94 % 1004,9 hPa 0,0 l/m 0,0 km/h (0 Bft) NO 45 6,0 C 6,9 C
28.11.2012 14:11 6,8 C 94 % 1004,9 hPa 0,0 l/m 0,0 km/h (0 Bft) NO 45 5,9 C 6,8 C
28.11.2012 14:16 6,8 C 94 % 1004,9 hPa 0,0 l/m 2,2 km/h (1 Bft) NO 45 5,9 C 6,8 C
28.11.2012 14:21 6,8 C 94 % 1004,8 hPa 0,0 l/m 1,4 km/h (1 Bft) NO 45 5,9 C 6,8 C
28.11.2012 14:26 6,8 C 94 % 1004,7 hPa 0,0 l/m 0,0 km/h (0 Bft) NO 45 5,9 C 6,8 C
28.11.2012 14:31 6,8 C 94 % 1004,6 hPa 0,0 l/m 0,0 km/h (0 Bft) NO 45 5,9 C 6,8 C
28.11.2012 14:36 6,8 C 94 % 1004,6 hPa 0,0 l/m 0,0 km/h (0 Bft) NO 45 5,9 C 6,8 C
28.11.2012 14:41 6,8 C 94 % 1004,6 hPa 0,0 l/m 1,4 km/h (1 Bft) NO 45 5,9 C 6,8 C
28.11.2012 14:46 6,8 C 94 % 1004,7 hPa 0,0 l/m 0,0 km/h (0 Bft) NO 45 5,9 C 6,8 C
28.11.2012 14:51 6,8 C 94 % 1004,7 hPa 0,0 l/m 0,0 km/h (0 Bft) NO 45 5,9 C 6,8 C
28.11.2012 14:56 6,7 C 94 % 1004,6 hPa 0,0 l/m 0,0 km/h (0 Bft) NO 45 5,8 C 6,7 C
28.11.2012 15:01 6,6 C 94 % 1004,6 hPa 0,0 l/m 0,0 km/h (0 Bft) NO 45 5,7 C 6,6 C
28.11.2012 15:06 6,6 C 94 % 1004,6 hPa 0,0 l/m 0,0 km/h (0 Bft) NO 45 5,7 C 6,6 C
28.11.2012 15:11 6,6 C 94 % 1004,6 hPa 0,0 l/m 0,0 km/h (0 Bft) NO 45 5,7 C 6,6 C
28.11.2012 15:16 6,6 C 94 % 1004,6 hPa 0,0 l/m 3,2 km/h (1 Bft) NO 45 5,7 C 6,6 C
28.11.2012 15:21 6,6 C 94 % 1004,5 hPa 0,0 l/m 2,2 km/h (1 Bft) NO 45 5,7 C 6,6 C
28.11.2012 15:26 6,5 C 94 % 1004,6 hPa 0,0 l/m 0,0 km/h (0 Bft) N-NO 22 5,6 C 6,5 C
28.11.2012 15:31 6,5 C 94 % 1004,5 hPa 0,0 l/m 0,0 km/h (0 Bft) N-NO 22 5,6 C 6,5 C
28.11.2012 15:36 6,4 C 94 % 1004,6 hPa 0,0 l/m 2,2 km/h (1 Bft) N-NO 22 5,5 C 6,4 C
28.11.2012 15:41 6,4 C 94 % 1004,5 hPa 0,0 l/m 0,0 km/h (0 Bft) N-NO 22 5,5 C 6,4 C
28.11.2012 15:46 6,4 C 94 % 1004,5 hPa 0,0 l/m 2,5 km/h (1 Bft) N-NO 22 5,5 C 6,4 C
28.11.2012 15:51 6,4 C 94 % 1004,5 hPa 0,0 l/m 3,2 km/h (1 Bft) N-NO 22 5,5 C 6,4 C
28.11.2012 15:56 6,3 C 93 % 1004,5 hPa 0,0 l/m 2,2 km/h (1 Bft) N-NO 22 5,3 C 6,3 C
28.11.2012 16:01 6,3 C 93 % 1004,5 hPa 0,0 l/m 4,0 km/h (1 Bft) N-NW 337 5,3 C 6,3 C
28.11.2012 16:06 6,2 C 93 % 1004,5 hPa 0,0 l/m 0,0 km/h (0 Bft) N-NO 22 5,2 C 6,2 C
28.11.2012 16:11 6,2 C 93 % 1004,6 hPa 0,0 l/m 2,2 km/h (1 Bft) NO 45 5,2 C 6,2 C
28.11.2012 16:16 6,1 C 93 % 1004,5 hPa 0,0 l/m 5,0 km/h (1 Bft) N-NW 337 5,1 C 5,3 C
28.11.2012 16:21 6,1 C 93 % 1004,6 hPa 0,0 l/m 3,6 km/h (1 Bft) N-NO 22 5,1 C 6,1 C
28.11.2012 16:26 6,1 C 94 % 1004,5 hPa 0,0 l/m 4,0 km/h (1 Bft) N 360 5,2 C 6,1 C
28.11.2012 16:31 6,1 C 94 % 1004,5 hPa 0,0 l/m 4,7 km/h (1 Bft) N 360 5,2 C 5,4 C
28.11.2012 16:36 6,1 C 94 % 1004,5 hPa 0,0 l/m 0,0 km/h (0 Bft) N 360 5,2 C 6,1 C
28.11.2012 16:41 6,1 C 94 % 1004,5 hPa 0,0 l/m 2,2 km/h (1 Bft) N 360 5,2 C 6,1 C
28.11.2012 16:46 6,1 C 94 % 1004,4 hPa 0,0 l/m 5,0 km/h (1 Bft) N-NW 337 5,2 C 5,3 C
28.11.2012 16:51 6,0 C 94 % 1004,4 hPa 0,0 l/m 4,0 km/h (1 Bft) N-NW 337 5,1 C 6,0 C
28.11.2012 16:56 6,1 C 94 % 1004,4 hPa 0,0 l/m 1,1 km/h (1 Bft) N-NO 22 5,2 C 6,1 C
28.11.2012 17:01 6,0 C 94 % 1004,4 hPa 0,0 l/m 0,0 km/h (0 Bft) N 360 5,1 C 6,0 C
28.11.2012 17:06 6,1 C 94 % 1004,4 hPa 0,0 l/m 5,0 km/h (1 Bft) N-NW 337 5,2 C 5,3 C
28.11.2012 17:11 6,1 C 94 % 1004,5 hPa 0,0 l/m 4,7 km/h (1 Bft) N-NO 22 5,2 C 5,4 C
28.11.2012 17:16 6,1 C 94 % 1004,4 hPa 0,0 l/m 6,5 km/h (2 Bft) N-NO 22 5,2 C 4,8 C
28.11.2012 17:21 6,1 C 94 % 1004,4 hPa 0,0 l/m 8,6 km/h (2 Bft) N-NO 22 5,2 C 4,3 C
28.11.2012 17:26 6,1 C 94 % 1004,4 hPa 0,0 l/m 6,8 km/h (2 Bft) N-NO 22 5,2 C 4,7 C
28.11.2012 17:31 6,1 C 94 % 1004,4 hPa 0,0 l/m 6,1 km/h (2 Bft) N 360 5,2 C 5,0 C
28.11.2012 17:36 6,1 C 94 % 1004,2 hPa 0,0 l/m 3,6 km/h (1 Bft) N-NO 22 5,2 C 6,1 C
28.11.2012 17:41 6,1 C 94 % 1004,1 hPa 0,0 l/m 4,7 km/h (1 Bft) N-NO 22 5,2 C 5,4 C
28.11.2012 17:46 6,1 C 94 % 1004,2 hPa 0,0 l/m 6,8 km/h (2 Bft) N-NO 22 5,2 C 4,7 C
28.11.2012 17:51 6,1 C 94 % 1004,1 hPa 0,0 l/m 7,6 km/h (2 Bft) N 360 5,2 C 4,5 C
28.11.2012 17:56 6,1 C 94 % 1004,2 hPa 0,0 l/m 5,0 km/h (1 Bft) N 360 5,2 C 5,3 C
28.11.2012 18:01 5,9 C 94 % 1004,2 hPa 0,0 l/m 6,5 km/h (2 Bft) N 360 5,0 C 4,6 C
28.11.2012 18:06 6,0 C 94 % 1004,1 hPa 0,0 l/m 7,6 km/h (2 Bft) N 360 5,1 C 4,4 C
28.11.2012 18:11 5,9 C 94 % 1004,0 hPa 0,0 l/m 8,6 km/h (2 Bft) N-NO 22 5,0 C 4,0 C
28.11.2012 18:16 5,9 C 94 % 1004,0 hPa 0,0 l/m 6,5 km/h (2 Bft) N-NO 22 5,0 C 4,6 C
28.11.2012 18:21 5,9 C 94 % 1004,0 hPa 0,0 l/m 5,8 km/h (2 Bft) N-NO 22 5,0 C 4,8 C
28.11.2012 18:26 5,9 C 94 % 1004,1 hPa 0,0 l/m 3,2 km/h (1 Bft) N-NO 22 5,0 C 5,9 C
28.11.2012 18:31 5,9 C 94 % 1004,1 hPa 0,0 l/m 6,1 km/h (2 Bft) N 360 5,0 C 4,7 C
28.11.2012 18:36 5,9 C 94 % 1004,1 hPa 0,0 l/m 5,4 km/h (1 Bft) N-NO 22 5,0 C 5,0 C
28.11.2012 18:41 5,9 C 94 % 1004,0 hPa 0,0 l/m 4,7 km/h (1 Bft) N-NO 22 5,0 C 5,2 C
28.11.2012 18:46 5,8 C 94 % 1004,0 hPa 0,0 l/m 7,6 km/h (2 Bft) N-NO 22 4,9 C 4,2 C
28.11.2012 18:51 5,8 C 94 % 1003,9 hPa 0,0 l/m 9,0 km/h (2 Bft) N 360 4,9 C 3,8 C
28.11.2012 18:56 5,8 C 94 % 1003,9 hPa 0,0 l/m 6,8 km/h (2 Bft) N-NO 22 4,9 C 4,4 C
28.11.2012 19:01 5,8 C 94 % 1004,0 hPa 0,0 l/m 7,2 km/h (2 Bft) N-NO 22 4,9 C 4,3 C
28.11.2012 19:06 5,8 C 94 % 1004,0 hPa 0,0 l/m 10,4 km/h (2 Bft) N-NW 337 4,9 C 3,5 C
28.11.2012 19:11 5,8 C 94 % 1004,0 hPa 0,0 l/m 8,6 km/h (2 Bft) N 360 4,9 C 3,9 C
28.11.2012 19:16 5,8 C 94 % 1004,1 hPa 0,0 l/m 3,6 km/h (1 Bft) NO 45 4,9 C 5,8 C
28.11.2012 19:21 5,8 C 94 % 1004,0 hPa 0,0 l/m 5,8 km/h (2 Bft) N-NO 22 4,9 C 4,7 C
28.11.2012 19:26 5,8 C 94 % 1003,8 hPa 0,0 l/m 3,2 km/h (1 Bft) N 360 4,9 C 5,8 C
28.11.2012 19:31 5,8 C 94 % 1004,0 hPa 0,0 l/m 3,6 km/h (1 Bft) N-NO 22 4,9 C 5,8 C
28.11.2012 19:36 5,8 C 94 % 1004,0 hPa 0,0 l/m 6,1 km/h (2 Bft) N-NO 22 4,9 C 4,6 C
28.11.2012 19:41 5,8 C 94 % 1004,0 hPa 0,0 l/m 5,4 km/h (1 Bft) N 360 4,9 C 4,8 C
28.11.2012 19:46 5,8 C 94 % 1004,0 hPa 0,0 l/m 10,1 km/h (2 Bft) N-NO 22 4,9 C 3,6 C
28.11.2012 19:51 5,8 C 94 % 1004,1 hPa 0,0 l/m 5,0 km/h (1 Bft) N 360 4,9 C 5,0 C
28.11.2012 19:56 5,8 C 94 % 1004,0 hPa 0,0 l/m 4,0 km/h (1 Bft) N-NO 22 4,9 C 5,8 C
28.11.2012 20:01 5,8 C 94 % 1004,0 hPa 0,0 l/m 5,8 km/h (2 Bft) NO 45 4,9 C 4,7 C
28.11.2012 20:06 5,8 C 94 % 1004,0 hPa 0,0 l/m 4,3 km/h (1 Bft) N 360 4,9 C 5,8 C
28.11.2012 20:11 5,8 C 94 % 1004,0 hPa 0,0 l/m 4,3 km/h (1 Bft) N-NO 22 4,9 C 5,8 C
28.11.2012 20:16 5,7 C 94 % 1004,1 hPa 0,0 l/m 4,0 km/h (1 Bft) NO 45 4,8 C 5,7 C
28.11.2012 20:21 5,7 C 93 % 1003,9 hPa 0,0 l/m 3,2 km/h (1 Bft) NO 45 4,7 C 5,7 C
28.11.2012 20:26 5,6 C 93 % 1004,0 hPa 0,0 l/m 4,0 km/h (1 Bft) N 360 4,6 C 5,6 C
28.11.2012 20:31 5,6 C 93 % 1004,0 hPa 0,0 l/m 5,8 km/h (2 Bft) N-NO 22 4,6 C 4,5 C
28.11.2012 20:36 5,6 C 93 % 1004,1 hPa 0,0 l/m 7,2 km/h (2 Bft) O-NO 67 4,6 C 4,1 C
28.11.2012 20:41 5,6 C 93 % 1004,0 hPa 0,0 l/m 4,7 km/h (1 Bft) N-NO 22 4,6 C 4,9 C
28.11.2012 20:46 5,6 C 93 % 1004,0 hPa 0,0 l/m 5,0 km/h (1 Bft) N-NO 22 4,6 C 4,8 C
28.11.2012 20:51 5,6 C 93 % 1004,1 hPa 0,0 l/m 2,9 km/h (1 Bft) N-NO 22 4,6 C 5,6 C
28.11.2012 20:56 5,6 C 93 % 1004,0 hPa 0,0 l/m 2,2 km/h (1 Bft) N-NO 22 4,6 C 5,6 C
28.11.2012 21:01 5,5 C 93 % 1004,1 hPa 0,0 l/m 5,8 km/h (2 Bft) N-NO 22 4,5 C 4,4 C
28.11.2012 21:06 5,5 C 93 % 1004,0 hPa 0,0 l/m 5,0 km/h (1 Bft) N-NO 22 4,5 C 4,7 C
28.11.2012 21:11 5,4 C 93 % 1003,9 hPa 0,0 l/m 5,8 km/h (2 Bft) N-NO 22 4,4 C 4,2 C
28.11.2012 21:16 5,4 C 93 % 1003,8 hPa 0,0 l/m 8,6 km/h (2 Bft) N 360 4,4 C 3,5 C
28.11.2012 21:21 5,3 C 93 % 1003,9 hPa 0,0 l/m 8,3 km/h (2 Bft) N 360 4,3 C 3,4 C
28.11.2012 21:26 5,3 C 93 % 1003,9 hPa 0,0 l/m 6,1 km/h (2 Bft) N-NO 22 4,3 C 4,0 C
28.11.2012 21:31 5,3 C 93 % 1003,8 hPa 0,0 l/m 3,6 km/h (1 Bft) N-NO 22 4,3 C 5,3 C
28.11.2012 21:36 5,3 C 93 % 1003,9 hPa 0,0 l/m 4,0 km/h (1 Bft) N-NO 22 4,3 C 5,3 C
28.11.2012 21:41 5,3 C 93 % 1004,0 hPa 0,0 l/m 11,9 km/h (2 Bft) N 360 4,3 C 2,6 C
28.11.2012 21:46 5,3 C 93 % 1004,0 hPa 0,0 l/m 4,3 km/h (1 Bft) N 360 4,3 C 5,3 C
28.11.2012 21:51 5,3 C 93 % 1004,0 hPa 0,0 l/m 3,6 km/h (1 Bft) N 360 4,3 C 5,3 C
28.11.2012 21:56 5,3 C 93 % 1003,8 hPa 0,0 l/m 2,9 km/h (1 Bft) N 360 4,3 C 5,3 C
28.11.2012 22:01 5,3 C 93 % 1003,8 hPa 0,0 l/m 6,1 km/h (2 Bft) N-NO 22 4,3 C 4,0 C
28.11.2012 22:06 5,2 C 93 % 1003,9 hPa 0,0 l/m 6,8 km/h (2 Bft) N-NO 22 4,2 C 3,7 C
28.11.2012 22:11 5,2 C 93 % 1003,9 hPa 0,0 l/m 5,0 km/h (1 Bft) N-NO 22 4,2 C 4,3 C
28.11.2012 22:16 5,2 C 93 % 1003,7 hPa 0,0 l/m 5,0 km/h (1 Bft) N 360 4,2 C 4,3 C
28.11.2012 22:21 5,1 C 93 % 1003,4 hPa 0,0 l/m 7,6 km/h (2 Bft) N 360 4,1 C 3,4 C
28.11.2012 22:26 5,1 C 93 % 1003,4 hPa 0,0 l/m 7,2 km/h (2 Bft) N 360 4,1 C 3,5 C
28.11.2012 22:31 5,1 C 92 % 1003,3 hPa 0,0 l/m 8,6 km/h (2 Bft) N-NO 22 3,9 C 3,1 C
28.11.2012 22:36 5,1 C 92 % 1003,4 hPa 0,0 l/m 11,2 km/h (2 Bft) N 360 3,9 C 2,5 C
28.11.2012 22:41 5,0 C 92 % 1003,5 hPa 0,0 l/m 6,1 km/h (2 Bft) N-NO 22 3,8 C 3,7 C
28.11.2012 22:46 5,0 C 92 % 1003,3 hPa 0,0 l/m 5,0 km/h (1 Bft) N-NO 22 3,8 C 4,1 C
28.11.2012 22:51 4,9 C 92 % 1003,5 hPa 0,0 l/m 3,2 km/h (1 Bft) N-NO 22 3,7 C 4,9 C
28.11.2012 22:56 4,9 C 92 % 1003,5 hPa 0,0 l/m 4,0 km/h (1 Bft) N-NO 22 3,7 C 4,9 C
28.11.2012 23:01 4,9 C 92 % 1003,6 hPa 0,0 l/m 5,4 km/h (1 Bft) N-NO 22 3,7 C 3,8 C
28.11.2012 23:06 4,9 C 92 % 1003,5 hPa 0,0 l/m 0,0 km/h (0 Bft) N-NO 22 3,7 C 4,9 C
28.11.2012 23:11 4,9 C 92 % 1003,5 hPa 0,0 l/m 6,1 km/h (2 Bft) N 360 3,7 C 3,6 C
28.11.2012 23:16 4,8 C 92 % 1003,4 hPa 0,0 l/m 5,4 km/h (1 Bft) N-NO 22 3,6 C 3,7 C
28.11.2012 23:21 4,8 C 92 % 1003,4 hPa 0,0 l/m 3,6 km/h (1 Bft) N-NO 22 3,6 C 4,8 C
28.11.2012 23:26 4,8 C 92 % 1003,2 hPa 0,0 l/m 4,7 km/h (1 Bft) N-NO 22 3,6 C 4,0 C
28.11.2012 23:31 4,7 C 92 % 1003,0 hPa 0,0 l/m 6,8 km/h (2 Bft) N 360 3,5 C 3,1 C
28.11.2012 23:36 4,7 C 92 % 1003,0 hPa 0,0 l/m 6,5 km/h (2 Bft) N 360 3,5 C 3,2 C
28.11.2012 23:41 4,6 C 92 % 1002,7 hPa 0,0 l/m 7,6 km/h (2 Bft) N-NO 22 3,4 C 2,8 C
28.11.2012 23:46 4,6 C 92 % 1002,8 hPa 0,0 l/m 5,4 km/h (1 Bft) N 360 3,4 C 3,5 C
28.11.2012 23:51 4,6 C 92 % 1002,8 hPa 0,0 l/m 6,1 km/h (2 Bft) N-NO 22 3,4 C 3,2 C
28.11.2012 23:56 4,6 C 92 % 1002,7 hPa 0,0 l/m 5,8 km/h (2 Bft) N-NO 22 3,4 C 3,3 C
_ Min-Zeit 23:41 22:31 23:41 - 00:06 - - 23:41 22:36
Minimum _ 4,6 C 92 % 1002,7 hPa - 0,0 km/h (0 Bft) - - 3,4 C 2,5 C
_ Max-Zeit 12:56 08:51 00:36 07:16 21:41 - - 12:56 12:56
Maximum _ 6,9 C 94 % 1007,4 hPa 0,5 l/m 11,9 km/h
N (2 Bft)
- - 6,0 C 6,9 C
Durchschnitt _ 5,6 C 93 % 1005,3 hPa #0,5 l/m 2,1 km/h (1 Bft) N-NO - 4,6 C 5,3 C
(c) by David Heller